sensor_id;sensor_type;location;lat;lon;timestamp;pressure;altitude;pressure_sealevel;temperature;humidity
54936;BME280;40838;50.676;7.838;2023-03-24T00:01:51;97126.06;;;7.36;100.00
54936;BME280;40838;50.676;7.838;2023-03-24T00:04:20;97119.66;;;7.43;100.00
54936;BME280;40838;50.676;7.838;2023-03-24T00:06:47;97116.19;;;6.99;100.00
54936;BME280;40838;50.676;7.838;2023-03-24T00:09:15;97107.59;;;7.07;100.00
54936;BME280;40838;50.676;7.838;2023-03-24T00:11:42;97122.50;;;7.27;100.00
54936;BME280;40838;50.676;7.838;2023-03-24T00:14:11;97114.88;;;7.21;100.00
54936;BME280;40838;50.676;7.838;2023-03-24T00:16:38;97105.34;;;7.20;100.00
54936;BME280;40838;50.676;7.838;2023-03-24T00:19:08;97120.00;;;7.36;100.00
54936;BME280;40838;50.676;7.838;2023-03-24T00:21:35;97099.19;;;7.24;100.00
54936;BME280;40838;50.676;7.838;2023-03-24T00:24:04;97102.38;;;7.26;100.00
54936;BME280;40838;50.676;7.838;2023-03-24T00:26:32;97098.59;;;7.32;100.00
54936;BME280;40838;50.676;7.838;2023-03-24T00:28:59;97099.00;;;7.39;100.00
54936;BME280;40838;50.676;7.838;2023-03-24T00:31:28;97089.69;;;7.23;100.00
54936;BME280;40838;50.676;7.838;2023-03-24T00:33:55;97089.50;;;7.38;100.00
54936;BME280;40838;50.676;7.838;2023-03-24T00:36:23;97086.88;;;7.14;100.00
54936;BME280;40838;50.676;7.838;2023-03-24T00:38:51;97070.66;;;6.97;100.00
54936;BME280;40838;50.676;7.838;2023-03-24T00:41:18;97063.47;;;7.22;100.00
54936;BME280;40838;50.676;7.838;2023-03-24T00:43:46;97071.91;;;7.29;100.00
54936;BME280;40838;50.676;7.838;2023-03-24T00:46:15;97069.66;;;6.93;100.00
54936;BME280;40838;50.676;7.838;2023-03-24T00:48:53;97070.09;;;7.00;100.00
54936;BME280;40838;50.676;7.838;2023-03-24T00:51:28;97064.66;;;7.34;100.00
54936;BME280;40838;50.676;7.838;2023-03-24T00:53:56;97057.94;;;6.99;100.00
54936;BME280;40838;50.676;7.838;2023-03-24T00:56:27;97061.19;;;7.15;100.00
54936;BME280;40838;50.676;7.838;2023-03-24T00:58:55;97060.75;;;7.08;100.00
54936;BME280;40838;50.676;7.838;2023-03-24T01:01:24;97064.13;;;6.89;100.00
54936;BME280;40838;50.676;7.838;2023-03-24T01:03:53;97059.41;;;6.86;100.00
54936;BME280;40838;50.676;7.838;2023-03-24T01:06:22;97051.97;;;6.88;100.00
54936;BME280;40838;50.676;7.838;2023-03-24T01:08:49;97039.53;;;6.89;100.00
54936;BME280;40838;50.676;7.838;2023-03-24T01:11:19;97047.81;;;6.82;100.00
54936;BME280;40838;50.676;7.838;2023-03-24T01:13:49;97032.81;;;6.97;100.00
54936;BME280;40838;50.676;7.838;2023-03-24T01:16:16;97033.50;;;6.83;100.00
54936;BME280;40838;50.676;7.838;2023-03-24T01:18:44;97029.03;;;7.22;100.00
54936;BME280;40838;50.676;7.838;2023-03-24T01:21:12;97028.31;;;7.16;100.00
54936;BME280;40838;50.676;7.838;2023-03-24T01:23:39;97029.88;;;6.98;100.00
54936;BME280;40838;50.676;7.838;2023-03-24T01:26:08;97026.66;;;7.01;100.00
54936;BME280;40838;50.676;7.838;2023-03-24T01:28:36;97027.88;;;6.66;100.00
54936;BME280;40838;50.676;7.838;2023-03-24T01:31:06;97023.44;;;6.85;100.00
54936;BME280;40838;50.676;7.838;2023-03-24T01:33:34;97015.47;;;6.85;100.00
54936;BME280;40838;50.676;7.838;2023-03-24T01:36:02;97009.09;;;7.10;100.00
54936;BME280;40838;50.676;7.838;2023-03-24T01:38:30;97005.78;;;7.00;100.00
54936;BME280;40838;50.676;7.838;2023-03-24T01:40:57;96998.41;;;6.97;100.00
54936;BME280;40838;50.676;7.838;2023-03-24T01:43:26;97004.31;;;6.88;100.00
54936;BME280;40838;50.676;7.838;2023-03-24T01:46:00;97007.13;;;7.16;100.00
54936;BME280;40838;50.676;7.838;2023-03-24T01:48:31;97003.75;;;6.91;100.00
54936;BME280;40838;50.676;7.838;2023-03-24T01:51:02;96994.03;;;7.06;100.00
54936;BME280;40838;50.676;7.838;2023-03-24T01:53:32;96995.38;;;6.84;100.00
54936;BME280;40838;50.676;7.838;2023-03-24T01:56:01;96983.28;;;6.78;100.00
54936;BME280;40838;50.676;7.838;2023-03-24T01:58:36;96974.22;;;6.84;100.00
54936;BME280;40838;50.676;7.838;2023-03-24T02:01:26;96968.63;;;6.86;100.00
54936;BME280;40838;50.676;7.838;2023-03-24T02:04:14;96963.97;;;6.97;100.00
54936;BME280;40838;50.676;7.838;2023-03-24T02:06:43;96965.81;;;6.77;100.00
54936;BME280;40838;50.676;7.838;2023-03-24T02:09:13;96954.88;;;6.84;100.00
54936;BME280;40838;50.676;7.838;2023-03-24T02:11:42;96955.59;;;6.70;100.00
54936;BME280;40838;50.676;7.838;2023-03-24T02:14:10;96944.66;;;6.77;100.00
54936;BME280;40838;50.676;7.838;2023-03-24T02:16:56;96949.41;;;6.99;100.00
54936;BME280;40838;50.676;7.838;2023-03-24T02:23:02;96940.72;;;6.75;100.00
54936;BME280;40838;50.676;7.838;2023-03-24T02:28:38;96944.66;;;6.96;100.00
54936;BME280;40838;50.676;7.838;2023-03-24T02:31:33;96932.94;;;7.02;100.00
54936;BME280;40838;50.676;7.838;2023-03-24T02:34:47;96934.28;;;7.00;100.00
54936;BME280;40838;50.676;7.838;2023-03-24T02:37:41;96920.03;;;7.14;100.00
54936;BME280;40838;50.676;7.838;2023-03-24T02:40:22;96907.78;;;7.19;100.00
54936;BME280;40838;50.676;7.838;2023-03-24T02:43:01;96901.09;;;6.88;100.00
54936;BME280;40838;50.676;7.838;2023-03-24T02:45:34;96891.16;;;6.99;100.00
54936;BME280;40838;50.676;7.838;2023-03-24T02:48:13;96896.56;;;7.08;100.00
54936;BME280;40838;50.676;7.838;2023-03-24T02:50:48;96907.94;;;7.08;100.00
54936;BME280;40838;50.676;7.838;2023-03-24T02:53:19;96900.50;;;7.10;100.00
54936;BME280;40838;50.676;7.838;2023-03-24T02:56:12;96872.03;;;7.02;100.00
54936;BME280;40838;50.676;7.838;2023-03-24T02:58:46;96883.53;;;7.11;100.00
54936;BME280;40838;50.676;7.838;2023-03-24T03:01:19;96884.66;;;7.24;100.00
54936;BME280;40838;50.676;7.838;2023-03-24T03:04:19;96886.97;;;7.31;100.00
54936;BME280;40838;50.676;7.838;2023-03-24T03:06:51;96887.50;;;7.47;100.00
54936;BME280;40838;50.676;7.838;2023-03-24T03:09:20;96881.75;;;7.26;100.00
54936;BME280;40838;50.676;7.838;2023-03-24T03:11:53;96892.19;;;7.17;100.00
54936;BME280;40838;50.676;7.838;2023-03-24T03:14:25;96886.16;;;7.30;100.00
54936;BME280;40838;50.676;7.838;2023-03-24T03:16:56;96887.75;;;7.12;100.00
54936;BME280;40838;50.676;7.838;2023-03-24T03:19:30;96886.66;;;7.32;100.00
54936;BME280;40838;50.676;7.838;2023-03-24T03:21:59;96891.47;;;7.11;100.00
54936;BME280;40838;50.676;7.838;2023-03-24T03:24:32;96888.06;;;7.11;100.00
54936;BME280;40838;50.676;7.838;2023-03-24T03:27:06;96876.84;;;7.33;100.00
54936;BME280;40838;50.676;7.838;2023-03-24T03:29:38;96876.47;;;7.39;100.00
54936;BME280;40838;50.676;7.838;2023-03-24T03:32:08;96880.75;;;7.54;100.00
54936;BME280;40838;50.676;7.838;2023-03-24T03:34:41;96877.88;;;7.51;100.00
54936;BME280;40838;50.676;7.838;2023-03-24T03:37:15;96879.78;;;7.64;100.00
54936;BME280;40838;50.676;7.838;2023-03-24T03:39:49;96876.00;;;7.37;100.00
54936;BME280;40838;50.676;7.838;2023-03-24T03:42:19;96869.66;;;7.52;100.00
54936;BME280;40838;50.676;7.838;2023-03-24T03:44:47;96881.88;;;7.48;100.00
54936;BME280;40838;50.676;7.838;2023-03-24T03:47:14;96883.94;;;7.37;100.00
54936;BME280;40838;50.676;7.838;2023-03-24T03:49:44;96887.97;;;7.35;100.00
54936;BME280;40838;50.676;7.838;2023-03-24T03:52:11;96877.16;;;7.31;100.00
54936;BME280;40838;50.676;7.838;2023-03-24T03:54:40;96883.28;;;7.46;100.00
54936;BME280;40838;50.676;7.838;2023-03-24T03:57:09;96862.97;;;7.55;100.00
54936;BME280;40838;50.676;7.838;2023-03-24T03:59:54;96869.09;;;7.36;100.00
54936;BME280;40838;50.676;7.838;2023-03-24T04:02:30;96861.88;;;7.42;100.00
54936;BME280;40838;50.676;7.838;2023-03-24T04:05:21;96873.47;;;7.60;100.00
54936;BME280;40838;50.676;7.838;2023-03-24T04:08:12;96879.56;;;7.74;100.00
54936;BME280;40838;50.676;7.838;2023-03-24T04:11:12;96885.53;;;7.52;100.00
54936;BME280;40838;50.676;7.838;2023-03-24T04:14:13;96886.16;;;7.30;100.00
54936;BME280;40838;50.676;7.838;2023-03-24T04:17:22;96878.91;;;7.82;100.00
54936;BME280;40838;50.676;7.838;2023-03-24T04:20:00;96892.59;;;7.57;100.00
54936;BME280;40838;50.676;7.838;2023-03-24T04:22:38;96883.41;;;7.68;100.00
54936;BME280;40838;50.676;7.838;2023-03-24T04:25:20;96892.78;;;7.47;100.00
54936;BME280;40838;50.676;7.838;2023-03-24T04:27:54;96893.75;;;7.37;100.00
54936;BME280;40838;50.676;7.838;2023-03-24T04:30:30;96888.94;;;7.39;100.00
54936;BME280;40838;50.676;7.838;2023-03-24T04:33:02;96895.13;;;7.48;100.00
54936;BME280;40838;50.676;7.838;2023-03-24T04:35:34;96887.75;;;7.31;100.00
54936;BME280;40838;50.676;7.838;2023-03-24T04:38:17;96889.88;;;7.62;100.00
54936;BME280;40838;50.676;7.838;2023-03-24T04:40:53;96890.66;;;7.49;100.00
54936;BME280;40838;50.676;7.838;2023-03-24T04:43:25;96885.53;;;7.52;100.00
54936;BME280;40838;50.676;7.838;2023-03-24T04:45:54;96893.97;;;7.41;100.00
54936;BME280;40838;50.676;7.838;2023-03-24T04:48:34;96890.47;;;7.26;100.00
54936;BME280;40838;50.676;7.838;2023-03-24T04:51:10;96892.03;;;7.27;100.00
54936;BME280;40838;50.676;7.838;2023-03-24T04:54:00;96909.25;;;7.11;100.00
54936;BME280;40838;50.676;7.838;2023-03-24T04:56:33;96910.03;;;7.11;100.00
54936;BME280;40838;50.676;7.838;2023-03-24T04:59:05;96885.72;;;7.23;100.00
54936;BME280;40838;50.676;7.838;2023-03-24T05:01:33;96891.09;;;7.18;100.00
54936;BME280;40838;50.676;7.838;2023-03-24T05:04:23;96915.06;;;7.46;100.00
54936;BME280;40838;50.676;7.838;2023-03-24T05:06:51;96904.22;;;7.28;100.00
54936;BME280;40838;50.676;7.838;2023-03-24T05:09:23;96920.28;;;6.99;100.00
54936;BME280;40838;50.676;7.838;2023-03-24T05:11:51;96902.06;;;7.30;100.00
54936;BME280;40838;50.676;7.838;2023-03-24T05:14:20;96884.56;;;6.97;100.00
54936;BME280;40838;50.676;7.838;2023-03-24T05:16:47;96899.22;;;7.08;100.00
54936;BME280;40838;50.676;7.838;2023-03-24T05:19:16;96898.34;;;7.12;100.00
54936;BME280;40838;50.676;7.838;2023-03-24T05:21:45;96889.63;;;7.12;100.00
54936;BME280;40838;50.676;7.838;2023-03-24T05:24:12;96899.75;;;7.24;100.00
54936;BME280;40838;50.676;7.838;2023-03-24T05:26:39;96902.47;;;7.19;100.00
54936;BME280;40838;50.676;7.838;2023-03-24T05:29:14;96903.63;;;7.12;100.00
54936;BME280;40838;50.676;7.838;2023-03-24T05:31:41;96895.03;;;7.21;100.00
54936;BME280;40838;50.676;7.838;2023-03-24T05:34:14;96902.72;;;7.03;100.00
54936;BME280;40838;50.676;7.838;2023-03-24T05:37:05;96913.75;;;7.10;100.00
54936;BME280;40838;50.676;7.838;2023-03-24T05:39:36;96903.16;;;7.29;100.00
54936;BME280;40838;50.676;7.838;2023-03-24T05:42:07;96899.41;;;7.30;100.00
54936;BME280;40838;50.676;7.838;2023-03-24T05:44:34;96892.56;;;7.10;100.00
54936;BME280;40838;50.676;7.838;2023-03-24T05:47:08;96896.34;;;7.23;100.00
54936;BME280;40838;50.676;7.838;2023-03-24T05:49:37;96886.75;;;7.08;100.00
54936;BME280;40838;50.676;7.838;2023-03-24T05:52:05;96884.81;;;7.33;100.00
54936;BME280;40838;50.676;7.838;2023-03-24T05:54:36;96872.06;;;7.16;100.00
54936;BME280;40838;50.676;7.838;2023-03-24T05:57:15;96874.59;;;7.26;100.00
54936;BME280;40838;50.676;7.838;2023-03-24T06:00:06;96887.22;;;7.62;100.00
54936;BME280;40838;50.676;7.838;2023-03-24T06:03:01;96888.91;;;7.58;100.00
54936;BME280;40838;50.676;7.838;2023-03-24T06:05:37;96894.47;;;7.43;100.00
54936;BME280;40838;50.676;7.838;2023-03-24T06:08:05;96892.41;;;7.53;100.00
54936;BME280;40838;50.676;7.838;2023-03-24T06:10:36;96896.84;;;7.58;100.00
54936;BME280;40838;50.676;7.838;2023-03-24T06:13:03;96887.72;;;7.64;100.00
54936;BME280;40838;50.676;7.838;2023-03-24T06:15:34;96902.63;;;7.60;100.00
54936;BME280;40838;50.676;7.838;2023-03-24T06:18:19;96893.03;;;7.64;100.00
54936;BME280;40838;50.676;7.838;2023-03-24T06:20:48;96896.94;;;7.53;100.00
54936;BME280;40838;50.676;7.838;2023-03-24T06:23:27;96898.50;;;7.54;100.00
54936;BME280;40838;50.676;7.838;2023-03-24T06:26:01;96913.47;;;7.45;100.00
54936;BME280;40838;50.676;7.838;2023-03-24T06:28:33;96924.75;;;7.36;100.00
54936;BME280;40838;50.676;7.838;2023-03-24T06:31:09;96936.84;;;7.43;100.00
54936;BME280;40838;50.676;7.838;2023-03-24T06:33:39;96934.22;;;7.43;100.00
54936;BME280;40838;50.676;7.838;2023-03-24T06:36:07;96935.06;;;7.38;100.00
54936;BME280;40838;50.676;7.838;2023-03-24T06:38:37;96930.13;;;7.31;100.00
54936;BME280;40838;50.676;7.838;2023-03-24T06:41:05;96951.47;;;7.40;100.00
54936;BME280;40838;50.676;7.838;2023-03-24T06:43:33;96969.13;;;7.07;100.00
54936;BME280;40838;50.676;7.838;2023-03-24T06:46:01;96982.59;;;6.24;100.00
54936;BME280;40838;50.676;7.838;2023-03-24T06:48:28;96984.19;;;10.19;100.00
54936;BME280;40838;50.676;7.838;2023-03-24T06:51:18;63975.66;;;-150.98;100.00
54936;BME280;40838;50.676;7.838;2023-03-24T06:53:47;97003.91;;;8.78;100.00
54936;BME280;40838;50.676;7.838;2023-03-24T06:56:14;97034.94;;;4.55;100.00
54936;BME280;40838;50.676;7.838;2023-03-24T06:58:48;97044.19;;;3.19;100.00
54936;BME280;40838;50.676;7.838;2023-03-24T07:01:23;97047.28;;;2.96;100.00
54936;BME280;40838;50.676;7.838;2023-03-24T07:03:50;97058.03;;;2.84;100.00
54936;BME280;40838;50.676;7.838;2023-03-24T07:06:29;97066.16;;;2.72;100.00
54936;BME280;40838;50.676;7.838;2023-03-24T07:09:04;97079.28;;;2.72;100.00
54936;BME280;40838;50.676;7.838;2023-03-24T07:11:31;97103.16;;;2.60;100.00
54936;BME280;40838;50.676;7.838;2023-03-24T07:14:01;97104.53;;;4.79;100.00
54936;BME280;40838;50.676;7.838;2023-03-24T07:16:29;97109.84;;;3.57;100.00
54936;BME280;40838;50.676;7.838;2023-03-24T07:19:19;97093.28;;;3.71;100.00
54936;BME280;40838;50.676;7.838;2023-03-24T07:21:52;97097.44;;;3.62;100.00
54936;BME280;40838;50.676;7.838;2023-03-24T07:24:33;97100.63;;;3.80;100.00
54936;BME280;40838;50.676;7.838;2023-03-24T07:27:16;97096.69;;;3.72;100.00
54936;BME280;40838;50.676;7.838;2023-03-24T07:29:43;97095.63;;;3.73;100.00
54936;BME280;40838;50.676;7.838;2023-03-24T07:32:16;97100.41;;;4.07;100.00
54936;BME280;40838;50.676;7.838;2023-03-24T07:34:43;97098.78;;;4.06;100.00
54936;BME280;40838;50.676;7.838;2023-03-24T07:37:10;97099.34;;;3.97;100.00
54936;BME280;40838;50.676;7.838;2023-03-24T07:39:39;97101.44;;;3.95;100.00
54936;BME280;40838;50.676;7.838;2023-03-24T07:42:06;97102.75;;;3.88;100.00
54936;BME280;40838;50.676;7.838;2023-03-24T07:44:48;97104.88;;;4.01;100.00
54936;BME280;40838;50.676;7.838;2023-03-24T07:47:16;97116.72;;;3.98;100.00
54936;BME280;40838;50.676;7.838;2023-03-24T07:49:45;97110.94;;;4.02;100.00
54936;BME280;40838;50.676;7.838;2023-03-24T07:52:12;97113.03;;;4.35;100.00
54936;BME280;40838;50.676;7.838;2023-03-24T07:54:46;97105.38;;;4.49;100.00
54936;BME280;40838;50.676;7.838;2023-03-24T07:57:32;97115.69;;;4.51;100.00
54936;BME280;40838;50.676;7.838;2023-03-24T08:00:02;97113.56;;;4.48;100.00
54936;BME280;40838;50.676;7.838;2023-03-24T08:02:50;97120.63;;;4.67;100.00
54936;BME280;40838;50.676;7.838;2023-03-24T08:05:38;97132.78;;;4.63;100.00
54936;BME280;40838;50.676;7.838;2023-03-24T08:08:20;97141.53;;;4.28;100.00
54936;BME280;40838;50.676;7.838;2023-03-24T08:10:48;97129.38;;;4.37;100.00
54936;BME280;40838;50.676;7.838;2023-03-24T08:13:16;97130.44;;;4.57;100.00
54936;BME280;40838;50.676;7.838;2023-03-24T08:15:43;97139.63;;;4.80;100.00
54936;BME280;40838;50.676;7.838;2023-03-24T08:18:09;97133.72;;;5.08;100.00
54936;BME280;40838;50.676;7.838;2023-03-24T08:20:36;97151.75;;;4.76;100.00
54936;BME280;40838;50.676;7.838;2023-03-24T08:23:03;97139.75;;;5.19;100.00
54936;BME280;40838;50.676;7.838;2023-03-24T08:25:33;97147.66;;;5.24;100.00
54936;BME280;40838;50.676;7.838;2023-03-24T08:28:02;97136.88;;;5.10;100.00
54936;BME280;40838;50.676;7.838;2023-03-24T08:30:29;97135.78;;;5.22;100.00
54936;BME280;40838;50.676;7.838;2023-03-24T08:32:57;97136.25;;;5.29;100.00
54936;BME280;40838;50.676;7.838;2023-03-24T08:35:26;97136.81;;;5.26;100.00
54936;BME280;40838;50.676;7.838;2023-03-24T08:37:54;97148.13;;;5.31;100.00
54936;BME280;40838;50.676;7.838;2023-03-24T08:40:24;97131.59;;;5.10;100.00
54936;BME280;40838;50.676;7.838;2023-03-24T08:42:53;97144.06;;;5.00;100.00
54936;BME280;40838;50.676;7.838;2023-03-24T08:45:24;97152.88;;;4.34;100.00
54936;BME280;40838;50.676;7.838;2023-03-24T08:47:53;97151.28;;;4.48;100.00
54936;BME280;40838;50.676;7.838;2023-03-24T08:50:23;97138.59;;;4.71;100.00
54936;BME280;40838;50.676;7.838;2023-03-24T08:52:53;97142.94;;;5.11;100.00
54936;BME280;40838;50.676;7.838;2023-03-24T08:55:20;97137.34;;;5.23;100.00
54936;BME280;40838;50.676;7.838;2023-03-24T08:57:48;97132.97;;;5.57;100.00
54936;BME280;40838;50.676;7.838;2023-03-24T09:00:17;97134.69;;;5.77;100.00
54936;BME280;40838;50.676;7.838;2023-03-24T09:02:48;97143.94;;;6.19;100.00
54936;BME280;40838;50.676;7.838;2023-03-24T09:05:17;97136.22;;;5.39;100.00
54936;BME280;40838;50.676;7.838;2023-03-24T09:07:44;97141.59;;;5.19;100.00
54936;BME280;40838;50.676;7.838;2023-03-24T09:10:13;97140.28;;;5.16;100.00
54936;BME280;40838;50.676;7.838;2023-03-24T09:12:42;97137.56;;;5.86;100.00
54936;BME280;40838;50.676;7.838;2023-03-24T09:15:11;97138.91;;;5.78;100.00
54936;BME280;40838;50.676;7.838;2023-03-24T09:17:38;97132.47;;;6.00;100.00
54936;BME280;40838;50.676;7.838;2023-03-24T09:20:08;97139.19;;;5.77;100.00
54936;BME280;40838;50.676;7.838;2023-03-24T09:22:36;97140.22;;;5.86;100.00
54936;BME280;40838;50.676;7.838;2023-03-24T09:25:04;97140.88;;;6.02;100.00
54936;BME280;40838;50.676;7.838;2023-03-24T09:27:31;97133.00;;;5.97;100.00
54936;BME280;40838;50.676;7.838;2023-03-24T09:29:58;97130.50;;;6.11;100.00
54936;BME280;40838;50.676;7.838;2023-03-24T09:32:24;97134.00;;;6.06;100.00
54936;BME280;40838;50.676;7.838;2023-03-24T09:34:51;97138.16;;;5.73;100.00
54936;BME280;40838;50.676;7.838;2023-03-24T09:37:19;97146.03;;;5.88;100.00
54936;BME280;40838;50.676;7.838;2023-03-24T09:39:46;97147.38;;;5.75;100.00
54936;BME280;40838;50.676;7.838;2023-03-24T09:42:19;97153.47;;;5.76;100.00
54936;BME280;40838;50.676;7.838;2023-03-24T09:44:50;97159.91;;;5.54;100.00
54936;BME280;40838;50.676;7.838;2023-03-24T09:47:25;97165.28;;;5.39;100.00
54936;BME280;40838;50.676;7.838;2023-03-24T09:49:58;97167.81;;;5.60;100.00
54936;BME280;40838;50.676;7.838;2023-03-24T09:52:31;97167.72;;;5.85;100.00
54936;BME280;40838;50.676;7.838;2023-03-24T09:54:59;97166.31;;;6.90;100.00
54936;BME280;40838;50.676;7.838;2023-03-24T09:57:33;97165.41;;;7.00;100.00
54936;BME280;40838;50.676;7.838;2023-03-24T10:00:14;97170.41;;;7.31;100.00
54936;BME280;40838;50.676;7.838;2023-03-24T10:02:41;97178.94;;;7.23;100.00
54936;BME280;40838;50.676;7.838;2023-03-24T10:05:12;97182.34;;;7.71;100.00
54936;BME280;40838;50.676;7.838;2023-03-24T10:07:46;97187.41;;;7.49;100.00
54936;BME280;40838;50.676;7.838;2023-03-24T10:10:21;97184.44;;;7.93;100.00
54936;BME280;40838;50.676;7.838;2023-03-24T10:12:49;97185.34;;;8.21;100.00
54936;BME280;40838;50.676;7.838;2023-03-24T10:15:25;97175.03;;;8.71;100.00
54936;BME280;40838;50.676;7.838;2023-03-24T10:17:58;97175.09;;;7.58;100.00
54936;BME280;40838;50.676;7.838;2023-03-24T10:20:32;97182.56;;;8.13;100.00
54936;BME280;40838;50.676;7.838;2023-03-24T10:23:13;97182.16;;;7.87;100.00
54936;BME280;40838;50.676;7.838;2023-03-24T10:25:49;97183.94;;;7.29;100.00
54936;BME280;40838;50.676;7.838;2023-03-24T10:28:19;97187.53;;;7.38;100.00
54936;BME280;40838;50.676;7.838;2023-03-24T10:30:47;97188.44;;;7.29;100.00
54936;BME280;40838;50.676;7.838;2023-03-24T10:33:15;97191.59;;;6.78;100.00
54936;BME280;40838;50.676;7.838;2023-03-24T10:35:50;97202.97;;;6.78;100.00
54936;BME280;40838;50.676;7.838;2023-03-24T10:38:22;97209.63;;;6.76;100.00
54936;BME280;40838;50.676;7.838;2023-03-24T10:40:49;97197.06;;;6.57;100.00
54936;BME280;40838;50.676;7.838;2023-03-24T10:43:17;97189.75;;;7.02;100.00
54936;BME280;40838;50.676;7.838;2023-03-24T10:45:47;97190.34;;;6.70;100.00
54936;BME280;40838;50.676;7.838;2023-03-24T10:48:33;97193.59;;;7.39;100.00
54936;BME280;40838;50.676;7.838;2023-03-24T10:51:00;97192.09;;;7.33;100.00
54936;BME280;40838;50.676;7.838;2023-03-24T10:53:29;97181.84;;;7.88;100.00
54936;BME280;40838;50.676;7.838;2023-03-24T10:55:56;97173.00;;;10.24;100.00
54936;BME280;40838;50.676;7.838;2023-03-24T10:58:28;97165.03;;;10.77;100.00
54936;BME280;40838;50.676;7.838;2023-03-24T11:00:57;97170.78;;;11.02;100.00
54936;BME280;40838;50.676;7.838;2023-03-24T11:03:27;97172.56;;;9.85;100.00
54936;BME280;40838;50.676;7.838;2023-03-24T11:05:59;97182.00;;;11.21;100.00
54936;BME280;40838;50.676;7.838;2023-03-24T11:08:31;97185.41;;;10.06;100.00
54936;BME280;40838;50.676;7.838;2023-03-24T11:10:58;97189.59;;;9.57;100.00
54936;BME280;40838;50.676;7.838;2023-03-24T11:13:28;97200.53;;;10.05;100.00
54936;BME280;40838;50.676;7.838;2023-03-24T11:16:03;97199.75;;;10.41;100.00
54936;BME280;40838;50.676;7.838;2023-03-24T11:18:31;97205.97;;;10.37;100.00
54936;BME280;40838;50.676;7.838;2023-03-24T11:20:59;97212.31;;;10.27;100.00
54936;BME280;40838;50.676;7.838;2023-03-24T11:23:31;97212.50;;;11.38;98.44
54936;BME280;40838;50.676;7.838;2023-03-24T11:26:06;97209.06;;;9.94;100.00
54936;BME280;40838;50.676;7.838;2023-03-24T11:28:39;97212.47;;;10.98;96.18
54936;BME280;40838;50.676;7.838;2023-03-24T11:31:08;97208.78;;;8.99;98.12
54936;BME280;40838;50.676;7.838;2023-03-24T11:33:42;97214.72;;;8.63;100.00
54936;BME280;40838;50.676;7.838;2023-03-24T11:36:38;97217.28;;;9.28;100.00
54936;BME280;40838;50.676;7.838;2023-03-24T11:39:15;97190.50;;;9.80;94.29
54936;BME280;40838;50.676;7.838;2023-03-24T11:41:50;97192.19;;;9.34;99.21
54936;BME280;40838;50.676;7.838;2023-03-24T11:44:19;97185.53;;;8.77;98.33
54936;BME280;40838;50.676;7.838;2023-03-24T11:46:50;97181.34;;;9.17;98.45
54936;BME280;40838;50.676;7.838;2023-03-24T11:49:20;97168.47;;;10.47;96.28
54936;BME280;40838;50.676;7.838;2023-03-24T11:51:51;97166.03;;;10.59;94.55
54936;BME280;40838;50.676;7.838;2023-03-24T11:54:23;97152.72;;;10.37;91.40
54936;BME280;40838;50.676;7.838;2023-03-24T11:56:52;97169.19;;;10.70;95.78
54936;BME280;40838;50.676;7.838;2023-03-24T11:59:34;97162.66;;;10.45;86.39
54936;BME280;40838;50.676;7.838;2023-03-24T12:02:19;97162.94;;;10.43;89.06
54936;BME280;40838;50.676;7.838;2023-03-24T12:05:13;97157.00;;;10.46;87.30
54936;BME280;40838;50.676;7.838;2023-03-24T12:08:00;97164.84;;;10.74;91.77
54936;BME280;40838;50.676;7.838;2023-03-24T12:10:42;97175.66;;;10.46;87.33
54936;BME280;40838;50.676;7.838;2023-03-24T12:13:15;97169.13;;;10.07;86.94
54936;BME280;40838;50.676;7.838;2023-03-24T12:15:56;97190.19;;;9.54;89.94
54936;BME280;40838;50.676;7.838;2023-03-24T12:18:53;97176.63;;;9.41;87.36
54936;BME280;40838;50.676;7.838;2023-03-24T12:21:28;97179.75;;;8.74;88.63
54936;BME280;40838;50.676;7.838;2023-03-24T12:24:09;97185.75;;;8.94;89.57
54936;BME280;40838;50.676;7.838;2023-03-24T12:26:43;97179.78;;;9.30;91.35
54936;BME280;40838;50.676;7.838;2023-03-24T12:32:22;97176.53;;;9.33;85.82
54936;BME280;40838;50.676;7.838;2023-03-24T12:34:56;97183.69;;;8.77;83.66
54936;BME280;40838;50.676;7.838;2023-03-24T12:37:33;97190.59;;;9.06;80.28
54936;BME280;40838;50.676;7.838;2023-03-24T12:40:38;97186.19;;;9.01;81.84
54936;BME280;40838;50.676;7.838;2023-03-24T12:43:18;97181.28;;;8.62;80.06
54936;BME280;40838;50.676;7.838;2023-03-24T12:45:49;97187.09;;;8.64;79.96
54936;BME280;40838;50.676;7.838;2023-03-24T12:48:44;97195.91;;;8.59;80.52
54936;BME280;40838;50.676;7.838;2023-03-24T12:51:21;97193.75;;;8.61;80.34
54936;BME280;40838;50.676;7.838;2023-03-24T12:54:08;97184.84;;;8.71;80.14
54936;BME280;40838;50.676;7.838;2023-03-24T12:56:40;97183.72;;;9.05;80.22
54936;BME280;40838;50.676;7.838;2023-03-24T12:59:13;97174.16;;;9.17;83.33
54936;BME280;40838;50.676;7.838;2023-03-24T13:01:43;97184.47;;;8.91;79.62
54936;BME280;40838;50.676;7.838;2023-03-24T13:04:16;97177.41;;;8.87;81.41
54936;BME280;40838;50.676;7.838;2023-03-24T13:06:48;97177.84;;;10.22;79.29
54936;BME280;40838;50.676;7.838;2023-03-24T13:09:23;97164.66;;;10.39;76.20
54936;BME280;40838;50.676;7.838;2023-03-24T13:11:59;97162.97;;;10.21;74.76
54936;BME280;40838;50.676;7.838;2023-03-24T13:14:30;97156.69;;;11.02;73.82
54936;BME280;40838;50.676;7.838;2023-03-24T13:17:04;97156.84;;;11.05;77.76
54936;BME280;40838;50.676;7.838;2023-03-24T13:19:34;97146.69;;;11.07;75.91
54936;BME280;40838;50.676;7.838;2023-03-24T13:22:03;97150.19;;;11.34;75.03
54936;BME280;40838;50.676;7.838;2023-03-24T13:24:32;97162.69;;;11.16;71.99
54936;BME280;40838;50.676;7.838;2023-03-24T13:27:05;97159.22;;;10.44;70.97
54936;BME280;40838;50.676;7.838;2023-03-24T13:32:43;97170.00;;;9.80;72.00
54936;BME280;40838;50.676;7.838;2023-03-24T13:35:20;97163.25;;;10.19;74.04
54936;BME280;40838;50.676;7.838;2023-03-24T13:37:57;97174.16;;;10.09;72.97
54936;BME280;40838;50.676;7.838;2023-03-24T13:40:29;97156.00;;;10.56;75.07
54936;BME280;40838;50.676;7.838;2023-03-24T13:43:05;97144.16;;;10.71;70.90
54936;BME280;40838;50.676;7.838;2023-03-24T13:45:39;97143.31;;;10.93;70.77